sensor_id;sensor_type;location;lat;lon;timestamp;P1;durP1;ratioP1;P2;durP2;ratioP2
8704;SDS011;4389;41.932;25.904;2022-09-03T00:01:40;25.70;;;21.53;;
8704;SDS011;4389;41.932;25.904;2022-09-03T00:04:15;26.83;;;21.30;;
8704;SDS011;4389;41.932;25.904;2022-09-03T00:06:50;30.40;;;22.43;;
8704;SDS011;4389;41.932;25.904;2022-09-03T00:09:22;28.77;;;23.60;;
8704;SDS011;4389;41.932;25.904;2022-09-03T00:11:54;26.00;;;23.30;;
8704;SDS011;4389;41.932;25.904;2022-09-03T00:14:31;29.47;;;24.90;;
8704;SDS011;4389;41.932;25.904;2022-09-03T00:17:04;31.10;;;27.80;;
8704;SDS011;4389;41.932;25.904;2022-09-03T00:19:36;33.10;;;26.07;;
8704;SDS011;4389;41.932;25.904;2022-09-03T00:22:11;27.40;;;24.37;;
8704;SDS011;4389;41.932;25.904;2022-09-03T00:24:43;28.60;;;24.67;;
8704;SDS011;4389;41.932;25.904;2022-09-03T00:27:14;28.23;;;24.77;;
8704;SDS011;4389;41.932;25.904;2022-09-03T00:29:45;26.57;;;23.97;;
8704;SDS011;4389;41.932;25.904;2022-09-03T00:32:17;28.13;;;24.13;;
8704;SDS011;4389;41.932;25.904;2022-09-03T00:34:51;33.83;;;25.63;;
8704;SDS011;4389;41.932;25.904;2022-09-03T00:37:25;26.80;;;22.73;;
8704;SDS011;4389;41.932;25.904;2022-09-03T00:39:54;27.03;;;21.30;;
8704;SDS011;4389;41.932;25.904;2022-09-03T00:42:25;23.53;;;21.10;;
8704;SDS011;4389;41.932;25.904;2022-09-03T00:45:20;22.70;;;20.33;;
8704;SDS011;4389;41.932;25.904;2022-09-03T00:48:01;25.60;;;20.90;;
8704;SDS011;4389;41.932;25.904;2022-09-03T00:50:40;23.67;;;20.27;;
8704;SDS011;4389;41.932;25.904;2022-09-03T00:53:18;28.97;;;21.53;;
8704;SDS011;4389;41.932;25.904;2022-09-03T00:55:51;21.27;;;18.87;;
8704;SDS011;4389;41.932;25.904;2022-09-03T00:58:33;23.13;;;20.23;;
8704;SDS011;4389;41.932;25.904;2022-09-03T01:01:12;26.27;;;19.73;;
8704;SDS011;4389;41.932;25.904;2022-09-03T01:03:47;20.20;;;18.17;;
8704;SDS011;4389;41.932;25.904;2022-09-03T01:06:23;23.90;;;17.33;;
8704;SDS011;4389;41.932;25.904;2022-09-03T01:09:06;21.47;;;18.13;;
8704;SDS011;4389;41.932;25.904;2022-09-03T01:11:46;20.20;;;18.07;;
8704;SDS011;4389;41.932;25.904;2022-09-03T01:14:21;19.97;;;17.90;;
8704;SDS011;4389;41.932;25.904;2022-09-03T01:16:56;24.00;;;19.50;;
8704;SDS011;4389;41.932;25.904;2022-09-03T01:22:41;20.37;;;17.40;;
8704;SDS011;4389;41.932;25.904;2022-09-03T01:25:33;20.23;;;18.20;;
8704;SDS011;4389;41.932;25.904;2022-09-03T01:28:15;21.60;;;19.13;;
8704;SDS011;4389;41.932;25.904;2022-09-03T01:30:51;26.27;;;19.20;;
8704;SDS011;4389;41.932;25.904;2022-09-03T01:33:23;23.70;;;20.90;;
8704;SDS011;4389;41.932;25.904;2022-09-03T01:35:58;24.33;;;21.80;;
8704;SDS011;4389;41.932;25.904;2022-09-03T01:38:36;23.87;;;21.57;;
8704;SDS011;4389;41.932;25.904;2022-09-03T01:41:10;24.87;;;21.40;;
8704;SDS011;4389;41.932;25.904;2022-09-03T01:44:06;23.40;;;21.10;;
8704;SDS011;4389;41.932;25.904;2022-09-03T01:46:41;26.17;;;22.67;;
8704;SDS011;4389;41.932;25.904;2022-09-03T01:49:13;28.20;;;22.77;;
8704;SDS011;4389;41.932;25.904;2022-09-03T01:51:48;24.13;;;21.70;;
8704;SDS011;4389;41.932;25.904;2022-09-03T01:57:21;22.30;;;20.07;;
8704;SDS011;4389;41.932;25.904;2022-09-03T02:00:03;28.63;;;20.60;;
8704;SDS011;4389;41.932;25.904;2022-09-03T02:02:32;24.67;;;22.00;;
8704;SDS011;4389;41.932;25.904;2022-09-03T02:05:00;23.20;;;20.90;;
8704;SDS011;4389;41.932;25.904;2022-09-03T02:07:33;23.63;;;20.87;;
8704;SDS011;4389;41.932;25.904;2022-09-03T02:10:01;22.97;;;20.30;;
8704;SDS011;4389;41.932;25.904;2022-09-03T02:12:31;23.57;;;21.13;;
8704;SDS011;4389;41.932;25.904;2022-09-03T02:15:05;22.90;;;20.67;;
8704;SDS011;4389;41.932;25.904;2022-09-03T02:17:36;23.83;;;20.27;;
8704;SDS011;4389;41.932;25.904;2022-09-03T02:20:06;22.47;;;20.20;;
8704;SDS011;4389;41.932;25.904;2022-09-03T02:22:36;31.93;;;21.67;;
8704;SDS011;4389;41.932;25.904;2022-09-03T02:25:03;23.63;;;21.23;;
8704;SDS011;4389;41.932;25.904;2022-09-03T02:27:31;25.77;;;21.90;;
8704;SDS011;4389;41.932;25.904;2022-09-03T02:29:58;25.37;;;22.77;;
8704;SDS011;4389;41.932;25.904;2022-09-03T02:32:27;24.90;;;22.33;;
8704;SDS011;4389;41.932;25.904;2022-09-03T02:34:53;26.87;;;24.17;;
8704;SDS011;4389;41.932;25.904;2022-09-03T02:37:20;26.73;;;22.43;;
8704;SDS011;4389;41.932;25.904;2022-09-03T02:39:48;27.40;;;22.70;;
8704;SDS011;4389;41.932;25.904;2022-09-03T02:42:16;26.03;;;22.40;;
8704;SDS011;4389;41.932;25.904;2022-09-03T02:44:46;27.23;;;23.50;;
8704;SDS011;4389;41.932;25.904;2022-09-03T02:47:16;25.23;;;22.73;;
8704;SDS011;4389;41.932;25.904;2022-09-03T02:49:46;28.23;;;25.27;;
8704;SDS011;4389;41.932;25.904;2022-09-03T02:52:13;25.17;;;22.73;;
8704;SDS011;4389;41.932;25.904;2022-09-03T02:54:41;27.93;;;22.37;;
8704;SDS011;4389;41.932;25.904;2022-09-03T02:57:10;29.23;;;22.20;;
8704;SDS011;4389;41.932;25.904;2022-09-03T02:59:38;27.73;;;21.73;;
8704;SDS011;4389;41.932;25.904;2022-09-03T03:02:05;29.37;;;22.57;;
8704;SDS011;4389;41.932;25.904;2022-09-03T03:04:32;24.80;;;22.30;;
8704;SDS011;4389;41.932;25.904;2022-09-03T03:07:01;24.87;;;22.37;;
8704;SDS011;4389;41.932;25.904;2022-09-03T03:09:28;25.70;;;22.50;;
8704;SDS011;4389;41.932;25.904;2022-09-03T03:11:55;26.90;;;22.93;;
8704;SDS011;4389;41.932;25.904;2022-09-03T03:14:22;25.17;;;22.43;;
8704;SDS011;4389;41.932;25.904;2022-09-03T03:16:49;24.17;;;21.97;;
8704;SDS011;4389;41.932;25.904;2022-09-03T03:19:16;28.57;;;25.57;;
8704;SDS011;4389;41.932;25.904;2022-09-03T03:21:43;29.00;;;20.70;;
8704;SDS011;4389;41.932;25.904;2022-09-03T03:24:11;24.23;;;21.73;;
8704;SDS011;4389;41.932;25.904;2022-09-03T03:26:38;23.17;;;20.47;;
8704;SDS011;4389;41.932;25.904;2022-09-03T03:29:05;23.37;;;20.90;;
8704;SDS011;4389;41.932;25.904;2022-09-03T03:31:32;23.07;;;20.57;;
8704;SDS011;4389;41.932;25.904;2022-09-03T03:34:00;29.90;;;26.07;;
8704;SDS011;4389;41.932;25.904;2022-09-03T03:36:29;23.33;;;20.17;;
8704;SDS011;4389;41.932;25.904;2022-09-03T03:38:58;25.63;;;19.53;;
8704;SDS011;4389;41.932;25.904;2022-09-03T03:41:27;23.57;;;21.17;;
8704;SDS011;4389;41.932;25.904;2022-09-03T03:43:56;21.47;;;19.00;;
8704;SDS011;4389;41.932;25.904;2022-09-03T03:46:27;23.33;;;20.87;;
8704;SDS011;4389;41.932;25.904;2022-09-03T03:48:55;22.13;;;19.13;;
8704;SDS011;4389;41.932;25.904;2022-09-03T03:51:22;22.27;;;19.57;;
8704;SDS011;4389;41.932;25.904;2022-09-03T03:53:52;23.73;;;21.13;;
8704;SDS011;4389;41.932;25.904;2022-09-03T03:56:20;22.03;;;19.83;;
8704;SDS011;4389;41.932;25.904;2022-09-03T03:58:48;22.37;;;19.37;;
8704;SDS011;4389;41.932;25.904;2022-09-03T04:01:16;21.63;;;19.43;;
8704;SDS011;4389;41.932;25.904;2022-09-03T04:03:44;23.53;;;18.93;;
8704;SDS011;4389;41.932;25.904;2022-09-03T04:06:12;22.53;;;19.53;;
8704;SDS011;4389;41.932;25.904;2022-09-03T04:08:40;22.37;;;18.93;;
8704;SDS011;4389;41.932;25.904;2022-09-03T04:11:09;22.63;;;19.00;;
8704;SDS011;4389;41.932;25.904;2022-09-03T04:13:39;21.93;;;18.47;;
8704;SDS011;4389;41.932;25.904;2022-09-03T04:16:09;22.37;;;19.97;;
8704;SDS011;4389;41.932;25.904;2022-09-03T04:18:37;28.50;;;18.93;;
8704;SDS011;4389;41.932;25.904;2022-09-03T04:21:05;20.83;;;17.87;;
8704;SDS011;4389;41.932;25.904;2022-09-03T04:23:36;20.43;;;17.50;;
8704;SDS011;4389;41.932;25.904;2022-09-03T04:26:05;20.93;;;18.07;;
8704;SDS011;4389;41.932;25.904;2022-09-03T04:28:32;18.70;;;16.70;;
8704;SDS011;4389;41.932;25.904;2022-09-03T04:31:00;25.17;;;18.27;;
8704;SDS011;4389;41.932;25.904;2022-09-03T04:33:29;21.30;;;17.63;;
8704;SDS011;4389;41.932;25.904;2022-09-03T04:36:03;19.30;;;16.77;;
8704;SDS011;4389;41.932;25.904;2022-09-03T04:38:30;31.67;;;16.73;;
8704;SDS011;4389;41.932;25.904;2022-09-03T04:40:58;26.67;;;15.50;;
8704;SDS011;4389;41.932;25.904;2022-09-03T04:43:25;17.90;;;14.23;;
8704;SDS011;4389;41.932;25.904;2022-09-03T04:45:56;17.83;;;14.83;;
8704;SDS011;4389;41.932;25.904;2022-09-03T04:48:24;23.30;;;16.73;;
8704;SDS011;4389;41.932;25.904;2022-09-03T04:50:53;18.70;;;15.40;;
8704;SDS011;4389;41.932;25.904;2022-09-03T04:53:20;21.70;;;14.90;;
8704;SDS011;4389;41.932;25.904;2022-09-03T04:55:47;16.67;;;14.77;;
8704;SDS011;4389;41.932;25.904;2022-09-03T04:58:15;22.27;;;13.93;;
8704;SDS011;4389;41.932;25.904;2022-09-03T05:00:42;17.63;;;13.60;;
8704;SDS011;4389;41.932;25.904;2022-09-03T05:03:09;15.43;;;13.93;;
8704;SDS011;4389;41.932;25.904;2022-09-03T05:05:35;19.17;;;14.40;;
8704;SDS011;4389;41.932;25.904;2022-09-03T05:08:03;14.17;;;12.77;;
8704;SDS011;4389;41.932;25.904;2022-09-03T05:10:31;14.77;;;12.90;;
8704;SDS011;4389;41.932;25.904;2022-09-03T05:12:59;20.50;;;13.97;;
8704;SDS011;4389;41.932;25.904;2022-09-03T05:15:28;16.53;;;14.40;;
8704;SDS011;4389;41.932;25.904;2022-09-03T05:17:56;18.53;;;14.63;;
8704;SDS011;4389;41.932;25.904;2022-09-03T05:20:24;25.20;;;16.37;;
8704;SDS011;4389;41.932;25.904;2022-09-03T05:22:51;16.47;;;14.87;;
8704;SDS011;4389;41.932;25.904;2022-09-03T05:25:19;19.33;;;16.87;;
8704;SDS011;4389;41.932;25.904;2022-09-03T05:27:47;26.03;;;15.03;;
8704;SDS011;4389;41.932;25.904;2022-09-03T05:30:14;18.87;;;14.30;;
8704;SDS011;4389;41.932;25.904;2022-09-03T05:32:41;15.53;;;13.63;;
8704;SDS011;4389;41.932;25.904;2022-09-03T05:35:08;17.33;;;13.60;;
8704;SDS011;4389;41.932;25.904;2022-09-03T05:37:36;15.97;;;12.97;;
8704;SDS011;4389;41.932;25.904;2022-09-03T05:40:04;18.87;;;13.80;;
8704;SDS011;4389;41.932;25.904;2022-09-03T05:42:36;15.57;;;13.97;;
8704;SDS011;4389;41.932;25.904;2022-09-03T05:45:04;15.07;;;13.10;;
8704;SDS011;4389;41.932;25.904;2022-09-03T05:47:35;14.00;;;11.63;;
8704;SDS011;4389;41.932;25.904;2022-09-03T05:50:04;12.83;;;11.47;;
8704;SDS011;4389;41.932;25.904;2022-09-03T05:52:33;13.73;;;12.47;;
8704;SDS011;4389;41.932;25.904;2022-09-03T05:55:00;14.00;;;12.60;;
8704;SDS011;4389;41.932;25.904;2022-09-03T05:57:27;16.30;;;12.20;;
8704;SDS011;4389;41.932;25.904;2022-09-03T05:59:56;16.47;;;12.60;;
8704;SDS011;4389;41.932;25.904;2022-09-03T06:02:24;16.40;;;12.50;;
8704;SDS011;4389;41.932;25.904;2022-09-03T06:04:51;16.77;;;12.83;;
8704;SDS011;4389;41.932;25.904;2022-09-03T06:07:18;13.67;;;12.27;;
8704;SDS011;4389;41.932;25.904;2022-09-03T06:09:45;13.43;;;12.03;;
8704;SDS011;4389;41.932;25.904;2022-09-03T06:12:12;14.37;;;12.10;;
8704;SDS011;4389;41.932;25.904;2022-09-03T06:14:39;15.80;;;12.47;;
8704;SDS011;4389;41.932;25.904;2022-09-03T06:17:07;13.27;;;11.97;;
8704;SDS011;4389;41.932;25.904;2022-09-03T06:19:37;14.80;;;12.20;;
8704;SDS011;4389;41.932;25.904;2022-09-03T06:22:04;15.27;;;11.40;;
8704;SDS011;4389;41.932;25.904;2022-09-03T06:24:31;13.13;;;11.33;;
8704;SDS011;4389;41.932;25.904;2022-09-03T06:26:58;12.47;;;10.93;;
8704;SDS011;4389;41.932;25.904;2022-09-03T06:29:25;15.50;;;10.83;;
8704;SDS011;4389;41.932;25.904;2022-09-03T06:31:52;12.37;;;10.03;;
8704;SDS011;4389;41.932;25.904;2022-09-03T06:34:21;11.73;;;9.80;;
8704;SDS011;4389;41.932;25.904;2022-09-03T06:36:51;11.13;;;10.10;;
8704;SDS011;4389;41.932;25.904;2022-09-03T06:39:18;11.23;;;10.23;;
8704;SDS011;4389;41.932;25.904;2022-09-03T06:41:45;14.33;;;10.07;;
8704;SDS011;4389;41.932;25.904;2022-09-03T06:44:12;14.47;;;9.83;;
8704;SDS011;4389;41.932;25.904;2022-09-03T06:46:39;13.50;;;9.10;;
8704;SDS011;4389;41.932;25.904;2022-09-03T06:49:07;15.67;;;10.23;;
8704;SDS011;4389;41.932;25.904;2022-09-03T06:51:36;10.47;;;9.57;;
8704;SDS011;4389;41.932;25.904;2022-09-03T06:54:05;14.73;;;10.10;;
8704;SDS011;4389;41.932;25.904;2022-09-03T06:56:33;13.60;;;10.20;;
8704;SDS011;4389;41.932;25.904;2022-09-03T06:59:03;11.17;;;9.47;;
8704;SDS011;4389;41.932;25.904;2022-09-03T07:01:31;17.83;;;10.33;;
8704;SDS011;4389;41.932;25.904;2022-09-03T07:04:00;14.60;;;9.63;;
8704;SDS011;4389;41.932;25.904;2022-09-03T07:06:29;12.73;;;10.00;;
8704;SDS011;4389;41.932;25.904;2022-09-03T07:08:58;13.67;;;8.97;;
8704;SDS011;4389;41.932;25.904;2022-09-03T07:11:26;14.10;;;9.07;;
8704;SDS011;4389;41.932;25.904;2022-09-03T07:13:55;12.97;;;8.87;;
8704;SDS011;4389;41.932;25.904;2022-09-03T07:16:23;11.67;;;9.17;;
8704;SDS011;4389;41.932;25.904;2022-09-03T07:18:52;11.40;;;8.77;;
8704;SDS011;4389;41.932;25.904;2022-09-03T07:21:20;11.83;;;9.13;;
8704;SDS011;4389;41.932;25.904;2022-09-03T07:23:48;14.13;;;9.20;;
8704;SDS011;4389;41.932;25.904;2022-09-03T07:26:17;10.13;;;8.60;;
8704;SDS011;4389;41.932;25.904;2022-09-03T07:28:45;9.83;;;8.93;;
8704;SDS011;4389;41.932;25.904;2022-09-03T07:31:13;15.37;;;9.50;;
8704;SDS011;4389;41.932;25.904;2022-09-03T07:33:44;8.93;;;8.13;;
8704;SDS011;4389;41.932;25.904;2022-09-03T07:36:11;12.07;;;8.77;;
8704;SDS011;4389;41.932;25.904;2022-09-03T07:38:41;13.87;;;9.27;;
8704;SDS011;4389;41.932;25.904;2022-09-03T07:41:09;11.20;;;8.70;;
8704;SDS011;4389;41.932;25.904;2022-09-03T07:43:39;11.17;;;8.23;;
8704;SDS011;4389;41.932;25.904;2022-09-03T07:46:07;15.07;;;8.85;;
8704;SDS011;4389;41.932;25.904;2022-09-03T07:48:37;11.40;;;8.60;;
8704;SDS011;4389;41.932;25.904;2022-09-03T07:51:05;9.27;;;8.30;;
8704;SDS011;4389;41.932;25.904;2022-09-03T07:53:32;15.43;;;9.68;;
8704;SDS011;4389;41.932;25.904;2022-09-03T07:56:01;13.63;;;9.35;;
8704;SDS011;4389;41.932;25.904;2022-09-03T07:58:29;12.75;;;9.20;;
8704;SDS011;4389;41.932;25.904;2022-09-03T08:01:02;8.90;;;8.10;;
8704;SDS011;4389;41.932;25.904;2022-09-03T08:03:32;11.57;;;9.27;;
8704;SDS011;4389;41.932;25.904;2022-09-03T08:06:00;10.25;;;8.57;;
8704;SDS011;4389;41.932;25.904;2022-09-03T08:08:28;10.82;;;8.85;;
8704;SDS011;4389;41.932;25.904;2022-09-03T08:11:02;9.75;;;8.80;;
8704;SDS011;4389;41.932;25.904;2022-09-03T08:13:29;10.55;;;8.27;;
8704;SDS011;4389;41.932;25.904;2022-09-03T08:15:59;17.85;;;15.55;;
8704;SDS011;4389;41.932;25.904;2022-09-03T08:18:26;23.38;;;15.75;;
8704;SDS011;4389;41.932;25.904;2022-09-03T08:21:03;10.85;;;9.15;;
8704;SDS011;4389;41.932;25.904;2022-09-03T08:23:31;10.05;;;9.05;;
8704;SDS011;4389;41.932;25.904;2022-09-03T08:25:59;18.57;;;9.90;;
8704;SDS011;4389;41.932;25.904;2022-09-03T08:28:26;9.73;;;8.82;;
8704;SDS011;4389;41.932;25.904;2022-09-03T08:30:53;14.02;;;9.30;;
8704;SDS011;4389;41.932;25.904;2022-09-03T08:33:24;8.75;;;7.93;;
8704;SDS011;4389;41.932;25.904;2022-09-03T08:36:02;11.70;;;9.45;;
8704;SDS011;4389;41.932;25.904;2022-09-03T08:38:30;13.20;;;9.25;;
8704;SDS011;4389;41.932;25.904;2022-09-03T08:41:02;15.68;;;9.00;;
8704;SDS011;4389;41.932;25.904;2022-09-03T08:43:30;10.80;;;8.38;;
8704;SDS011;4389;41.932;25.904;2022-09-03T08:46:02;9.70;;;8.68;;
8704;SDS011;4389;41.932;25.904;2022-09-03T08:48:30;10.55;;;7.85;;
8704;SDS011;4389;41.932;25.904;2022-09-03T08:50:59;10.63;;;7.53;;
8704;SDS011;4389;41.932;25.904;2022-09-03T08:53:30;8.63;;;7.65;;
8704;SDS011;4389;41.932;25.904;2022-09-03T08:56:06;9.32;;;7.10;;
8704;SDS011;4389;41.932;25.904;2022-09-03T08:58:36;9.70;;;7.53;;
8704;SDS011;4389;41.932;25.904;2022-09-03T09:01:05;15.30;;;7.35;;
8704;SDS011;4389;41.932;25.904;2022-09-03T09:03:45;26.50;;;23.23;;
8704;SDS011;4389;41.932;25.904;2022-09-03T09:06:22;10.07;;;7.90;;
8704;SDS011;4389;41.932;25.904;2022-09-03T09:09:01;12.32;;;10.60;;
8704;SDS011;4389;41.932;25.904;2022-09-03T09:11:45;8.63;;;6.82;;
8704;SDS011;4389;41.932;25.904;2022-09-03T09:14:21;14.52;;;9.00;;
8704;SDS011;4389;41.932;25.904;2022-09-03T09:16:55;8.45;;;7.43;;
8704;SDS011;4389;41.932;25.904;2022-09-03T09:19:34;8.82;;;7.43;;
8704;SDS011;4389;41.932;25.904;2022-09-03T09:22:09;9.70;;;7.55;;
8704;SDS011;4389;41.932;25.904;2022-09-03T09:24:40;9.57;;;6.72;;
8704;SDS011;4389;41.932;25.904;2022-09-03T09:27:12;10.23;;;8.07;;
8704;SDS011;4389;41.932;25.904;2022-09-03T09:29:41;8.20;;;7.35;;
8704;SDS011;4389;41.932;25.904;2022-09-03T09:32:11;15.20;;;8.07;;
8704;SDS011;4389;41.932;25.904;2022-09-03T09:34:42;8.07;;;7.32;;
8704;SDS011;4389;41.932;25.904;2022-09-03T09:37:10;14.30;;;8.35;;
8704;SDS011;4389;41.932;25.904;2022-09-03T09:39:38;8.73;;;7.25;;
8704;SDS011;4389;41.932;25.904;2022-09-03T09:42:07;22.10;;;14.20;;
8704;SDS011;4389;41.932;25.904;2022-09-03T09:44:36;9.13;;;7.00;;
8704;SDS011;4389;41.932;25.904;2022-09-03T09:47:04;9.50;;;7.00;;
8704;SDS011;4389;41.932;25.904;2022-09-03T09:49:34;8.80;;;7.80;;
8704;SDS011;4389;41.932;25.904;2022-09-03T09:52:08;19.13;;;16.75;;
8704;SDS011;4389;41.932;25.904;2022-09-03T09:54:37;10.50;;;7.80;;
8704;SDS011;4389;41.932;25.904;2022-09-03T09:57:05;12.52;;;7.50;;
8704;SDS011;4389;41.932;25.904;2022-09-03T09:59:34;9.32;;;7.90;;
8704;SDS011;4389;41.932;25.904;2022-09-03T10:02:06;8.45;;;7.65;;
8704;SDS011;4389;41.932;25.904;2022-09-03T10:04:35;9.23;;;8.02;;
8704;SDS011;4389;41.932;25.904;2022-09-03T10:07:04;8.15;;;7.35;;
8704;SDS011;4389;41.932;25.904;2022-09-03T10:09:44;7.78;;;6.97;;
8704;SDS011;4389;41.932;25.904;2022-09-03T10:12:12;8.43;;;7.63;;
8704;SDS011;4389;41.932;25.904;2022-09-03T10:14:45;9.55;;;7.47;;
8704;SDS011;4389;41.932;25.904;2022-09-03T10:17:15;13.27;;;7.93;;
8704;SDS011;4389;41.932;25.904;2022-09-03T10:19:49;15.48;;;7.82;;
8704;SDS011;4389;41.932;25.904;2022-09-03T10:22:46;12.07;;;8.27;;
8704;SDS011;4389;41.932;25.904;2022-09-03T10:25:18;10.55;;;7.57;;
8704;SDS011;4389;41.932;25.904;2022-09-03T10:27:49;8.02;;;7.43;;
8704;SDS011;4389;41.932;25.904;2022-09-03T10:30:18;8.48;;;7.63;;
8704;SDS011;4389;41.932;25.904;2022-09-03T10:32:47;8.65;;;7.85;;
8704;SDS011;4389;41.932;25.904;2022-09-03T10:35:28;9.00;;;7.43;;
8704;SDS011;4389;41.932;25.904;2022-09-03T10:38:02;8.73;;;7.93;;
8704;SDS011;4389;41.932;25.904;2022-09-03T10:40:42;10.45;;;7.57;;
8704;SDS011;4389;41.932;25.904;2022-09-03T10:43:21;9.60;;;8.15;;
8704;SDS011;4389;41.932;25.904;2022-09-03T10:46:02;10.23;;;7.63;;
8704;SDS011;4389;41.932;25.904;2022-09-03T10:48:47;8.60;;;7.78;;
8704;SDS011;4389;41.932;25.904;2022-09-03T10:51:31;8.02;;;7.25;;
8704;SDS011;4389;41.932;25.904;2022-09-03T10:54:08;8.88;;;7.65;;
8704;SDS011;4389;41.932;25.904;2022-09-03T10:56:55;9.63;;;8.52;;
8704;SDS011;4389;41.932;25.904;2022-09-03T10:59:36;8.23;;;7.43;;
8704;SDS011;4389;41.932;25.904;2022-09-03T11:02:39;9.07;;;7.38;;
8704;SDS011;4389;41.932;25.904;2022-09-03T11:05:26;9.30;;;8.38;;
8704;SDS011;4389;41.932;25.904;2022-09-03T11:07:57;8.20;;;7.43;;
8704;SDS011;4389;41.932;25.904;2022-09-03T11:10:33;9.13;;;7.93;;
8704;SDS011;4389;41.932;25.904;2022-09-03T11:13:05;10.82;;;8.05;;
8704;SDS011;4389;41.932;25.904;2022-09-03T11:15:38;9.45;;;7.57;;
8704;SDS011;4389;41.932;25.904;2022-09-03T11:18:13;8.38;;;7.68;;
8704;SDS011;4389;41.932;25.904;2022-09-03T11:20:45;9.82;;;8.63;;
8704;SDS011;4389;41.932;25.904;2022-09-03T11:23:15;8.20;;;7.43;;
8704;SDS011;4389;41.932;25.904;2022-09-03T11:25:47;12.18;;;8.80;;
8704;SDS011;4389;41.932;25.904;2022-09-03T11:28:20;8.07;;;6.85;;
8704;SDS011;4389;41.932;25.904;2022-09-03T11:31:14;9.18;;;7.65;;
8704;SDS011;4389;41.932;25.904;2022-09-03T11:33:50;7.90;;;6.90;;
8704;SDS011;4389;41.932;25.904;2022-09-03T11:36:25;8.50;;;7.07;;
8704;SDS011;4389;41.932;25.904;2022-09-03T11:38:55;8.25;;;7.13;;
8704;SDS011;4389;41.932;25.904;2022-09-03T11:41:25;9.82;;;7.80;;
8704;SDS011;4389;41.932;25.904;2022-09-03T11:43:53;7.00;;;6.28;;
8704;SDS011;4389;41.932;25.904;2022-09-03T11:46:27;7.95;;;7.13;;
8704;SDS011;4389;41.932;25.904;2022-09-03T11:48:56;13.57;;;7.97;;
8704;SDS011;4389;41.932;25.904;2022-09-03T11:51:35;6.85;;;6.25;;
8704;SDS011;4389;41.932;25.904;2022-09-03T11:54:04;7.65;;;6.95;;
8704;SDS011;4389;41.932;25.904;2022-09-03T11:56:34;10.25;;;7.32;;
8704;SDS011;4389;41.932;25.904;2022-09-03T11:59:04;7.25;;;6.55;;
8704;SDS011;4389;41.932;25.904;2022-09-03T12:01:42;7.43;;;6.70;;
8704;SDS011;4389;41.932;25.904;2022-09-03T12:04:16;7.88;;;7.07;;
8704;SDS011;4389;41.932;25.904;2022-09-03T12:07:03;8.00;;;7.20;;
8704;SDS011;4389;41.932;25.904;2022-09-03T12:09:49;7.63;;;6.93;;
8704;SDS011;4389;41.932;25.904;2022-09-03T12:15:24;6.97;;;6.38;;
8704;SDS011;4389;41.932;25.904;2022-09-03T12:18:04;8.57;;;6.50;;
8704;SDS011;4389;41.932;25.904;2022-09-03T12:20:47;6.57;;;5.78;;
8704;SDS011;4389;41.932;25.904;2022-09-03T12:23:25;6.60;;;6.00;;
8704;SDS011;4389;41.932;25.904;2022-09-03T12:25:55;8.07;;;6.32;;
8704;SDS011;4389;41.932;25.904;2022-09-03T12:28:29;6.57;;;5.97;;
8704;SDS011;4389;41.932;25.904;2022-09-03T12:31:07;6.78;;;6.07;;
8704;SDS011;4389;41.932;25.904;2022-09-03T12:33:45;10.25;;;6.43;;
8704;SDS011;4389;41.932;25.904;2022-09-03T12:36:13;9.93;;;6.03;;
8704;SDS011;4389;41.932;25.904;2022-09-03T12:38:40;7.15;;;6.45;;
8704;SDS011;4389;41.932;25.904;2022-09-03T12:41:18;8.68;;;6.65;;
8704;SDS011;4389;41.932;25.904;2022-09-03T12:43:50;8.07;;;6.82;;
8704;SDS011;4389;41.932;25.904;2022-09-03T12:46:21;6.85;;;6.07;;
8704;SDS011;4389;41.932;25.904;2022-09-03T12:48:55;7.05;;;6.45;;
8704;SDS011;4389;41.932;25.904;2022-09-03T12:51:38;8.73;;;6.88;;
8704;SDS011;4389;41.932;25.904;2022-09-03T12:54:07;6.90;;;6.25;;
8704;SDS011;4389;41.932;25.904;2022-09-03T12:56:40;7.75;;;6.90;;
8704;SDS011;4389;41.932;25.904;2022-09-03T12:59:10;8.63;;;6.43;;
8704;SDS011;4389;41.932;25.904;2022-09-03T13:01:42;8.07;;;6.80;;
8704;SDS011;4389;41.932;25.904;2022-09-03T13:04:13;10.30;;;6.57;;
8704;SDS011;4389;41.932;25.904;2022-09-03T13:06:46;6.85;;;6.10;;
8704;SDS011;4389;41.932;25.904;2022-09-03T13:09:18;10.70;;;6.13;;
8704;SDS011;4389;41.932;25.904;2022-09-03T13:11:48;6.55;;;5.90;;
8704;SDS011;4389;41.932;25.904;2022-09-03T13:14:17;6.50;;;5.72;;
8704;SDS011;4389;41.932;25.904;2022-09-03T13:16:55;7.47;;;5.35;;
8704;SDS011;4389;41.932;25.904;2022-09-03T13:19:41;5.95;;;5.32;;
8704;SDS011;4389;41.932;25.904;2022-09-03T13:22:18;8.73;;;5.50;;
8704;SDS011;4389;41.932;25.904;2022-09-03T13:25:02;6.68;;;5.30;;
8704;SDS011;4389;41.932;25.904;2022-09-03T13:27:41;7.03;;;5.25;;
8704;SDS011;4389;41.932;25.904;2022-09-03T13:30:19;5.72;;;5.22;;
8704;SDS011;4389;41.932;25.904;2022-09-03T13:32:53;5.68;;;4.95;;
8704;SDS011;4389;41.932;25.904;2022-09-03T13:35:27;5.70;;;5.20;;
8704;SDS011;4389;41.932;25.904;2022-09-03T13:38:02;4.35;;;3.85;;
8704;SDS011;4389;41.932;25.904;2022-09-03T13:40:35;4.80;;;3.78;;
8704;SDS011;4389;41.932;25.904;2022-09-03T13:43:17;4.15;;;3.30;;
8704;SDS011;4389;41.932;25.904;2022-09-03T13:45:51;3.70;;;3.40;;
8704;SDS011;4389;41.932;25.904;2022-09-03T13:48:24;6.80;;;3.78;;
8704;SDS011;4389;41.932;25.904;2022-09-03T13:51:15;5.47;;;4.20;;
8704;SDS011;4389;41.932;25.904;2022-09-03T13:53:47;7.07;;;4.22;;
8704;SDS011;4389;41.932;25.904;2022-09-03T13:56:25;3.80;;;3.50;;
8704;SDS011;4389;41.932;25.904;2022-09-03T13:59:03;7.30;;;4.25;;
8704;SDS011;4389;41.932;25.904;2022-09-03T14:01:44;3.67;;;3.38;;
8704;SDS011;4389;41.932;25.904;2022-09-03T14:04:28;3.45;;;3.00;;
8704;SDS011;4389;41.932;25.904;2022-09-03T14:07:07;3.63;;;3.17;;
8704;SDS011;4389;41.932;25.904;2022-09-03T14:09:40;3.85;;;2.97;;
8704;SDS011;4389;41.932;25.904;2022-09-03T14:12:16;5.43;;;3.13;;
8704;SDS011;4389;41.932;25.904;2022-09-03T14:14:49;9.00;;;3.10;;
8704;SDS011;4389;41.932;25.904;2022-09-03T14:17:25;5.82;;;2.67;;
8704;SDS011;4389;41.932;25.904;2022-09-03T14:20:03;4.82;;;2.90;;
8704;SDS011;4389;41.932;25.904;2022-09-03T14:22:40;4.85;;;3.10;;
8704;SDS011;4389;41.932;25.904;2022-09-03T14:25:15;9.15;;;3.20;;
8704;SDS011;4389;41.932;25.904;2022-09-03T14:27:42;4.90;;;2.80;;
8704;SDS011;4389;41.932;25.904;2022-09-03T14:30:16;3.10;;;2.65;;
8704;SDS011;4389;41.932;25.904;2022-09-03T14:32:52;3.25;;;3.00;;
8704;SDS011;4389;41.932;25.904;2022-09-03T14:35:38;5.75;;;3.20;;
8704;SDS011;4389;41.932;25.904;2022-09-03T14:41:21;5.32;;;3.50;;
8704;SDS011;4389;41.932;25.904;2022-09-03T14:44:02;7.97;;;2.83;;
8704;SDS011;4389;41.932;25.904;2022-09-03T14:46:47;3.10;;;2.80;;
8704;SDS011;4389;41.932;25.904;2022-09-03T14:49:30;9.30;;;2.78;;
8704;SDS011;4389;41.932;25.904;2022-09-03T14:52:15;12.52;;;2.58;;
8704;SDS011;4389;41.932;25.904;2022-09-03T14:54:57;5.93;;;2.63;;
8704;SDS011;4389;41.932;25.904;2022-09-03T14:57:47;4.57;;;2.72;;
8704;SDS011;4389;41.932;25.904;2022-09-03T15:00:41;2.95;;;2.42;;
8704;SDS011;4389;41.932;25.904;2022-09-03T15:03:23;5.07;;;2.83;;
8704;SDS011;4389;41.932;25.904;2022-09-03T15:06:15;3.05;;;2.70;;
8704;SDS011;4389;41.932;25.904;2022-09-03T15:09:09;2.63;;;2.42;;
8704;SDS011;4389;41.932;25.904;2022-09-03T15:11:48;8.90;;;2.70;;
8704;SDS011;4389;41.932;25.904;2022-09-03T15:14:21;6.38;;;2.40;;
8704;SDS011;4389;41.932;25.904;2022-09-03T15:16:55;3.78;;;2.10;;
8704;SDS011;4389;41.932;25.904;2022-09-03T15:19:38;3.90;;;2.45;;
8704;SDS011;4389;41.932;25.904;2022-09-03T15:22:33;2.70;;;2.40;;
8704;SDS011;4389;41.932;25.904;2022-09-03T15:25:25;3.20;;;2.67;;
8704;SDS011;4389;41.932;25.904;2022-09-03T15:28:04;9.57;;;2.45;;
8704;SDS011;4389;41.932;25.904;2022-09-03T15:30:38;2.47;;;2.20;;